Time;durP1;ratioP1;P1;durP2;ratioP2;P2;SDS_P1;SDS_P2;PMS_P1;PMS_P2;Temp;Humidity;BMP_temperature;BMP_pressure;BME280_temperature;BME280_humidity;BME280_pressure;Samples;Min_cycle;Max_cycle;Signal;HPM_P1;HPM_P2
2022/12/04 00:02:05;;;;;;;78.82;37.50;;;;;;;;;;5129632;22;20714;-81
2022/12/04 00:04:31;;;;;;;95.20;39.13;;;0.40;99.90;;;;;;5129784;28;20429;-82
2022/12/04 00:06:59;;;;;;;76.60;37.72;;;0.50;99.90;;;;;;5127528;28;20273;-83
2022/12/04 00:09:26;;;;;;;86.38;36.22;;;0.40;99.90;;;;;;5126179;28;20243;-82
2022/12/04 00:11:53;;;;;;;91.95;38.80;;;0.50;99.90;;;;;;5118481;28;20247;-82
2022/12/04 00:14:20;;;;;;;82.97;37.97;;;0.60;99.90;;;;;;5107027;28;20228;-82
2022/12/04 00:16:49;;;;;;;85.53;41.15;;;0.50;99.90;;;;;;5106894;28;20272;-82
2022/12/04 00:19:16;;;;;;;96.22;39.80;;;0.60;99.90;;;;;;5106897;28;20235;-82
2022/12/04 00:21:44;;;;;;;81.78;39.53;;;0.20;99.90;;;;;;5112963;28;20281;-82
2022/12/04 00:24:11;;;;;;;82.38;41.13;;;0.20;99.90;;;;;;5114467;28;20202;-81
2022/12/04 00:26:38;;;;;;;93.20;40.28;;;0.60;99.90;;;;;;5116180;28;20265;-81
2022/12/04 00:29:05;;;;;;;86.72;39.53;;;0.60;99.90;;;;;;5113445;28;20202;-81
2022/12/04 00:31:32;;;;;;;84.78;40.45;;;0.60;99.90;;;;;;5106084;28;20232;-82
2022/12/04 00:34:01;;;;;;;85.60;37.95;;;0.10;99.90;;;;;;5106472;28;20273;-83
2022/12/04 00:36:29;;;;;;;81.53;37.90;;;0.70;99.90;;;;;;5106642;28;20202;-81
2022/12/04 00:38:58;;;;;;;90.63;40.53;;;0.40;99.90;;;;;;5105310;28;20213;-82
2022/12/04 00:41:27;;;;;;;94.13;40.53;;;0.20;99.90;;;;;;5105997;28;20328;-81
2022/12/04 00:43:54;;;;;;;83.20;36.10;;;0.30;99.90;;;;;;5105915;28;20240;-82
2022/12/04 00:46:22;;;;;;;95.80;39.53;;;0.40;99.90;;;;;;5106872;28;20269;-81
2022/12/04 00:48:49;;;;;;;100.10;40.00;;;0.70;99.90;;;;;;5106005;28;20271;-82
2022/12/04 00:51:21;;;;;;;99.80;41.42;;;0.50;99.90;;;;;;5106260;28;20298;-81
2022/12/04 00:53:48;;;;;;;95.93;41.65;;;0.20;99.90;;;;;;5105290;28;20196;-82
2022/12/04 00:56:17;;;;;;;97.43;42.67;;;0.50;99.90;;;;;;5104487;28;20198;-82
2022/12/04 00:58:47;;;;;;;99.28;42.75;;;0.60;99.90;;;;;;5104001;28;20236;-82
2022/12/04 01:01:16;;;;;;;82.53;40.50;;;0.50;99.90;;;;;;5103959;28;20232;-81
2022/12/04 01:03:43;;;;;;;83.97;38.65;;;0.70;99.90;;;;;;5103994;28;20277;-81
2022/12/04 01:06:20;;;;;;;80.60;38.05;;;0.70;99.90;;;;;;5104456;28;20265;-82
2022/12/04 01:08:47;;;;;;;85.68;39.92;;;0.10;99.90;;;;;;5105803;28;20256;-82
2022/12/04 01:11:14;;;;;;;98.70;40.63;;;0.50;99.90;;;;;;5105635;28;20253;-82
2022/12/04 01:13:41;;;;;;;91.80;39.03;;;0.40;99.90;;;;;;5105365;28;20209;-82
2022/12/04 01:16:08;;;;;;;101.00;40.42;;;0.50;99.90;;;;;;5105381;28;20723;-82
2022/12/04 01:18:35;;;;;;;86.30;42.47;;;0.50;99.90;;;;;;5108265;28;20241;-81
2022/12/04 01:21:01;;;;;;;84.90;39.85;;;0.50;99.90;;;;;;5116122;28;20268;-81
2022/12/04 01:23:30;;;;;;;89.85;38.30;;;0.50;99.90;;;;;;5111345;28;20236;-82
2022/12/04 01:25:58;;;;;;;91.95;39.25;;;0.50;99.90;;;;;;5109501;28;20231;-81
2022/12/04 01:28:25;;;;;;;97.25;44.15;;;0.70;99.90;;;;;;5108009;28;20206;-81
2022/12/04 01:31:03;;;;;;;94.75;41.03;;;0.20;99.90;;;;;;5108108;28;20227;-81
2022/12/04 01:33:31;;;;;;;99.75;40.65;;;0.50;99.90;;;;;;5108556;28;20189;-82
2022/12/04 01:35:59;;;;;;;88.80;43.03;;;0.50;99.90;;;;;;5107897;28;20319;-81
2022/12/04 01:38:27;;;;;;;111.40;42.85;;;0.50;99.90;;;;;;5114663;28;20208;-81
2022/12/04 01:40:56;;;;;;;93.82;39.33;;;-0.20;99.90;;;;;;5117069;28;20258;-80
2022/12/04 01:43:24;;;;;;;95.57;43.20;;;0.10;99.90;;;;;;5118796;28;20210;-81
2022/12/04 01:45:53;;;;;;;97.38;42.42;;;0.50;99.90;;;;;;5118008;28;20185;-80
2022/12/04 01:48:26;;;;;;;97.75;45.35;;;0.80;99.90;;;;;;5115362;28;20265;-82
2022/12/04 01:50:58;;;;;;;93.85;41.85;;;0.90;99.90;;;;;;5113997;28;20273;-81
2022/12/04 01:53:25;;;;;;;86.03;39.88;;;0.40;99.90;;;;;;5114450;28;20211;-81
2022/12/04 01:55:52;;;;;;;92.78;39.08;;;0.70;99.90;;;;;;5115461;28;20290;-81
2022/12/04 01:58:26;;;;;;;95.35;42.72;;;0.20;99.90;;;;;;5108945;28;20269;-81
2022/12/04 02:00:57;;;;;;;96.72;42.53;;;0.50;99.90;;;;;;5109020;28;20700;-81
2022/12/04 02:03:24;;;;;;;119.50;46.58;;;0.30;99.90;;;;;;5107694;28;20273;-82
2022/12/04 02:05:51;;;;;;;122.10;45.67;;;0.20;99.90;;;;;;5105878;28;20288;-82
2022/12/04 02:08:18;;;;;;;98.25;42.22;;;0.70;99.90;;;;;;5099020;28;20241;-82
2022/12/04 02:10:55;;;;;;;111.55;44.13;;;0.40;99.90;;;;;;5107334;28;20281;-82
2022/12/04 02:13:30;;;;;;;116.38;45.50;;;0.40;99.90;;;;;;5105726;28;20233;-82
2022/12/04 02:16:05;;;;;;;95.70;40.45;;;0.30;99.90;;;;;;5106057;28;20213;-82
2022/12/04 02:18:38;;;;;;;125.72;44.92;;;0.40;99.90;;;;;;5107242;28;20253;-82
2022/12/04 02:21:09;;;;;;;92.20;41.60;;;0.60;99.90;;;;;;5107574;28;20208;-82
2022/12/04 02:23:55;;;;;;;97.85;40.40;;;0.40;99.90;;;;;;5106763;28;20555;-81
2022/12/04 02:26:37;;;;;;;96.10;42.00;;;0.40;99.90;;;;;;5106278;28;20215;-82
2022/12/04 02:29:10;;;;;;;105.88;40.67;;;0.30;99.90;;;;;;5106792;28;20188;-82
2022/12/04 02:31:42;;;;;;;94.70;42.45;;;0.30;99.90;;;;;;5109350;28;20293;-82
2022/12/04 02:34:16;;;;;;;102.70;43.47;;;0.20;99.90;;;;;;5117186;28;20205;-82
2022/12/04 02:36:52;;;;;;;91.68;41.03;;;0.30;99.90;;;;;;5117576;28;20190;-81
2022/12/04 02:39:24;;;;;;;91.65;41.53;;;0.20;99.90;;;;;;5113737;28;20210;-81
2022/12/04 02:41:57;;;;;;;107.20;45.33;;;0.60;99.90;;;;;;5108766;28;20245;-81
2022/12/04 02:44:30;;;;;;;99.30;46.47;;;0.70;99.90;;;;;;5110111;28;20193;-82
2022/12/04 02:47:00;;;;;;;123.45;43.97;;;0.50;99.90;;;;;;5111415;28;20197;-82
2022/12/04 02:49:33;;;;;;;92.40;40.92;;;0.40;99.90;;;;;;5110926;28;20253;-82
2022/12/04 02:52:01;;;;;;;91.45;41.90;;;0.30;99.90;;;;;;5109024;28;20245;-82
2022/12/04 02:54:33;;;;;;;106.45;44.53;;;0.50;99.90;;;;;;5105775;28;20229;-81
2022/12/04 02:57:02;;;;;;;106.10;43.20;;;0.50;99.90;;;;;;5106924;28;20194;-82
2022/12/04 02:59:35;;;;;;;112.38;44.03;;;0.70;99.90;;;;;;5107393;28;20296;-81
2022/12/04 03:02:08;;;;;;;105.40;42.72;;;0.70;99.90;;;;;;5107544;28;20238;-81
2022/12/04 03:04:38;;;;;;;94.63;41.33;;;0.50;99.90;;;;;;5108290;28;20640;-82
2022/12/04 03:07:14;;;;;;;96.10;39.95;;;0.40;99.90;;;;;;5107984;28;20224;-82
2022/12/04 03:09:46;;;;;;;95.55;43.50;;;0.50;99.90;;;;;;5107160;28;20256;-81
2022/12/04 03:12:20;;;;;;;102.63;42.22;;;0.90;99.90;;;;;;5106316;28;20228;-81
2022/12/04 03:14:53;;;;;;;97.05;45.10;;;0.60;99.90;;;;;;5107370;28;20258;-81
2022/12/04 03:17:25;;;;;;;111.10;44.30;;;0.50;99.90;;;;;;5106735;28;20194;-81
2022/12/04 03:19:58;;;;;;;89.35;44.28;;;0.70;99.90;;;;;;5106913;28;20640;-82
2022/12/04 03:22:26;;;;;;;101.30;42.38;;;0.50;99.90;;;;;;5106682;28;20281;-82
2022/12/04 03:24:54;;;;;;;114.38;46.22;;;0.50;99.90;;;;;;5106885;28;20240;-82
2022/12/04 03:27:30;;;;;;;102.55;43.17;;;0.50;99.90;;;;;;5106797;28;20656;-83
2022/12/04 03:30:03;;;;;;;89.80;39.47;;;0.50;99.90;;;;;;5105842;28;20257;-83
2022/12/04 03:32:35;;;;;;;93.22;40.25;;;0.80;99.90;;;;;;5106477;28;20259;-82
2022/12/04 03:35:08;;;;;;;104.25;41.35;;;0.50;99.90;;;;;;5105511;28;20245;-82
2022/12/04 03:37:43;;;;;;;90.30;41.03;;;0.70;99.90;;;;;;5115839;28;20186;-82
2022/12/04 03:40:17;;;;;;;99.05;41.40;;;0.50;99.90;;;;;;5113819;28;20676;-82
2022/12/04 03:42:48;;;;;;;97.80;42.10;;;0.50;99.90;;;;;;5105911;28;20263;-83
2022/12/04 03:45:22;;;;;;;91.38;39.85;;;0.70;99.90;;;;;;5112277;28;20217;-82
2022/12/04 03:47:56;;;;;;;111.90;45.20;;;0.70;99.90;;;;;;5114636;28;20200;-82
2022/12/04 03:50:32;;;;;;;95.78;39.85;;;0.80;99.90;;;;;;5108606;28;20551;-82
2022/12/04 03:53:04;;;;;;;108.55;43.20;;;0.60;99.90;;;;;;5104703;28;20237;-82
2022/12/04 03:55:39;;;;;;;91.35;41.72;;;0.50;99.90;;;;;;5104968;28;20233;-82
2022/12/04 03:58:11;;;;;;;95.03;40.42;;;0.50;99.90;;;;;;5104513;28;20644;-83
2022/12/04 04:00:42;;;;;;;93.55;39.53;;;0.60;99.90;;;;;;5104261;28;20703;-83
2022/12/04 04:03:14;;;;;;;101.22;40.05;;;0.60;99.90;;;;;;5106879;28;20238;-82
2022/12/04 04:05:45;;;;;;;102.45;41.00;;;0.60;99.90;;;;;;5114504;28;20210;-82
2022/12/04 04:08:29;;;;;;;90.57;38.90;;;0.80;99.90;;;;;;5115422;28;20193;-82
2022/12/04 04:11:02;;;;;;;108.07;45.50;;;0.40;99.90;;;;;;5109721;28;20186;-82
2022/12/04 04:24:45;;;;;;;113.88;47.25;;;0.80;99.90;;;;;;5104760;28;20427;-82
2022/12/04 04:27:12;;;;;;;112.82;45.47;;;0.90;99.90;;;;;;5105435;28;20657;-82
2022/12/04 04:29:39;;;;;;;109.18;42.83;;;0.80;99.90;;;;;;5104503;28;20687;-81
2022/12/04 04:32:14;;;;;;;113.70;42.78;;;0.70;99.90;;;;;;5105536;28;20225;-82
2022/12/04 04:34:48;;;;;;;94.38;42.15;;;0.90;99.90;;;;;;5105570;28;20220;-82
2022/12/04 04:37:25;;;;;;;108.45;44.92;;;0.80;99.90;;;;;;5105398;28;20213;-82
2022/12/04 04:39:58;;;;;;;75.40;37.08;;;0.70;99.90;;;;;;5107661;28;20225;-81
2022/12/04 04:42:28;;;;;;;85.38;40.35;;;0.70;99.90;;;;;;5104803;28;20671;-82
2022/12/04 04:45:01;;;;;;;80.90;39.17;;;0.80;99.90;;;;;;5104564;28;20264;-82
2022/12/04 04:47:33;;;;;;;88.70;40.10;;;0.80;99.90;;;;;;5105445;28;20591;-82
2022/12/04 04:50:03;;;;;;;91.32;40.85;;;0.70;99.90;;;;;;5108624;28;20249;-82
2022/12/04 04:52:31;;;;;;;85.05;40.38;;;0.90;99.90;;;;;;5115338;28;20226;-81
2022/12/04 04:55:00;;;;;;;93.00;41.33;;;0.80;99.90;;;;;;5116476;28;20227;-80
2022/12/04 04:57:29;;;;;;;89.45;39.72;;;0.60;99.90;;;;;;5110227;28;20308;-81
2022/12/04 04:59:57;;;;;;;103.57;41.15;;;0.60;99.90;;;;;;5110671;28;20226;-81
2022/12/04 05:02:25;;;;;;;93.95;37.65;;;0.80;99.90;;;;;;5117935;28;20260;-81
2022/12/04 05:04:54;;;;;;;95.70;39.22;;;1.10;99.90;;;;;;5117448;28;20216;-82
2022/12/04 05:07:21;;;;;;;106.93;43.33;;;0.80;99.90;;;;;;5118371;28;20201;-80
2022/12/04 05:09:47;;;;;;;88.28;40.60;;;0.80;99.90;;;;;;5117497;28;20288;-81
2022/12/04 05:12:14;;;;;;;84.85;41.22;;;0.50;99.90;;;;;;5106589;28;20289;-81
2022/12/04 05:14:41;;;;;;;86.32;37.90;;;0.60;99.90;;;;;;5105921;28;20284;-82
2022/12/04 05:17:08;;;;;;;84.20;40.15;;;0.80;99.90;;;;;;5107301;28;20259;-82
2022/12/04 05:19:53;;;;;;;99.53;41.65;;;0.70;99.90;;;;;;5106932;28;20723;-81
2022/12/04 05:22:23;;;;;;;84.70;37.50;;;0.80;99.90;;;;;;5105661;28;20765;-82
2022/12/04 05:24:50;;;;;;;91.38;40.10;;;0.80;99.90;;;;;;5105830;28;20225;-80
2022/12/04 05:27:17;;;;;;;78.65;37.75;;;0.50;99.90;;;;;;5108324;28;20233;-81
2022/12/04 05:29:44;;;;;;;95.50;39.35;;;1.00;99.90;;;;;;5107743;28;20289;-81
2022/12/04 05:32:11;;;;;;;117.05;44.67;;;0.50;99.90;;;;;;5106520;28;20232;-82
2022/12/04 05:34:37;;;;;;;90.22;38.53;;;0.70;99.90;;;;;;5106499;28;20270;-82
2022/12/04 05:37:05;;;;;;;98.53;40.38;;;0.80;99.90;;;;;;5106643;28;20312;-82
2022/12/04 05:39:36;;;;;;;79.60;35.88;;;0.90;99.90;;;;;;5106625;28;20230;-82
2022/12/04 05:42:03;;;;;;;95.97;38.53;;;1.10;99.90;;;;;;5105593;28;20225;-81
2022/12/04 05:44:30;;;;;;;95.82;39.15;;;0.80;99.90;;;;;;5106179;28;20265;-82
2022/12/04 05:46:56;;;;;;;86.90;40.75;;;0.80;99.90;;;;;;5106896;28;20234;-81
2022/12/04 05:49:23;;;;;;;76.18;37.40;;;0.80;99.90;;;;;;5106718;28;20227;-81
2022/12/04 05:51:50;;;;;;;98.70;40.88;;;0.90;99.90;;;;;;5112134;28;20216;-81
2022/12/04 05:54:17;;;;;;;87.80;39.88;;;1.80;99.90;;;;;;5117728;28;20206;-81
2022/12/04 05:56:45;;;;;;;87.32;42.20;;;1.00;99.90;;;;;;5117527;28;20245;-81
2022/12/04 05:59:13;;;;;;;95.13;40.95;;;0.90;99.90;;;;;;5111270;28;20208;-81
2022/12/04 06:07:49;;;;;;;90.95;40.28;;;0.90;99.90;;;;;;5106469;28;20232;-83
2022/12/04 06:17:37;;;;;;;81.93;37.15;;;0.90;99.90;;;;;;5098071;28;20245;-84
2022/12/04 06:20:07;;;;;;;81.25;37.80;;;0.80;99.90;;;;;;5072877;28;20217;-83
2022/12/04 06:22:36;;;;;;;83.78;39.85;;;;;;;;;;5103914;28;20222;-81
2022/12/04 06:25:04;;;;;;;87.70;38.25;;;;;;;;;;5110108;28;20293;-82
2022/12/04 06:27:31;;;;;;;87.03;37.80;;;;;;;;;;5105917;28;20201;-82
2022/12/04 06:30:00;;;;;;;99.93;39.25;;;;;;;;;;5103868;28;20255;-82
2022/12/04 06:32:28;;;;;;;84.40;34.95;;;;;;;;;;5100377;28;20261;-82
2022/12/04 06:37:49;;;;;;;93.65;39.65;;;;;;;;;;5058872;28;20241;-83
2022/12/04 06:43:32;;;;;;;80.13;38.80;;;;;;;;;;5100475;28;20226;-83
2022/12/04 06:46:24;;;;;;;89.18;37.72;;;0.90;99.90;;;;;;5102213;28;20202;-82
2022/12/04 06:54:41;;;;;;;96.68;40.88;;;;;;;;;;5110633;28;20190;-83
2022/12/04 06:57:37;;;;;;;99.10;39.03;;;;;;;;;;5102233;28;20301;-83
2022/12/04 07:00:12;;;;;;;96.40;39.47;;;;;;;;;;5100678;28;20262;-83
2022/12/04 07:02:52;;;;;;;88.38;36.47;;;;;;;;;;5100011;28;20225;-84
2022/12/04 07:05:26;;;;;;;95.32;38.95;;;;;;;;;;5110567;28;20206;-81
2022/12/04 07:11:21;;;;;;;87.03;36.80;;;;;;;;;;5087567;28;20194;-83
2022/12/04 07:14:15;;;;;;;89.55;37.22;;;;;;;;;;5097253;28;20301;-83
2022/12/04 07:19:40;;;;;;;100.18;41.30;;;;;;;;;;5088881;28;20209;-81
2022/12/04 07:22:28;;;;;;;91.57;39.25;;;;;;;;;;5099207;28;20241;-83
2022/12/04 07:28:26;;;;;;;92.60;40.25;;;1.00;99.90;;;;;;5110581;28;20198;-82
2022/12/04 07:31:25;;;;;;;90.10;40.42;;;;;;;;;;5115625;28;20190;-81
2022/12/04 07:34:31;;;;;;;80.00;38.80;;;;;;;;;;5116261;28;20202;-80
2022/12/04 07:37:25;;;;;;;87.22;38.30;;;;;;;;;;5112846;28;20277;-80
2022/12/04 07:40:06;;;;;;;85.05;36.13;;;;;;;;;;5113989;28;20201;-83
2022/12/04 07:45:25;;;;;;;82.93;37.00;;;;;;;;;;5108577;28;20636;-83
2022/12/04 07:47:54;;;;;;;78.82;35.70;;;1.30;99.90;;;;;;5101948;28;20201;-82
2022/12/04 07:50:21;;;;;;;97.85;37.38;;;1.20;99.90;;;;;;5099780;28;20265;-83
2022/12/04 07:52:47;;;;;;;76.07;36.80;;;1.20;99.90;;;;;;5104794;28;20281;-82
2022/12/04 07:55:14;;;;;;;103.65;38.03;;;0.50;99.90;;;;;;5114175;28;20201;-81
2022/12/04 07:57:41;;;;;;;92.20;39.55;;;0.90;99.90;;;;;;5107845;28;20222;-83
2022/12/04 08:00:10;;;;;;;75.80;36.45;;;1.10;99.90;;;;;;5100430;28;20288;-82
2022/12/04 08:02:36;;;;;;;96.30;41.08;;;1.10;99.90;;;;;;5100059;28;20229;-83
2022/12/04 08:05:05;;;;;;;78.22;39.80;;;0.90;99.90;;;;;;5115380;28;20257;-80
2022/12/04 08:07:32;;;;;;;89.88;40.60;;;1.00;99.90;;;;;;5118123;28;20174;-82
2022/12/04 08:09:59;;;;;;;78.55;37.17;;;1.40;99.90;;;;;;5109429;28;20645;-84
2022/12/04 08:12:26;;;;;;;96.40;38.65;;;1.10;99.90;;;;;;5104550;28;20271;-83
2022/12/04 08:14:53;;;;;;;79.72;37.40;;;1.20;99.90;;;;;;5103888;28;20201;-82
2022/12/04 08:17:20;;;;;;;81.05;38.25;;;1.20;99.90;;;;;;5102332;28;20308;-82
2022/12/04 08:19:46;;;;;;;84.88;37.70;;;1.20;99.90;;;;;;5104720;28;20632;-84
2022/12/04 08:22:15;;;;;;;80.57;35.20;;;1.00;99.90;;;;;;5100201;28;20229;-84
2022/12/04 08:24:42;;;;;;;83.18;39.25;;;0.90;99.90;;;;;;5099361;28;20265;-82
2022/12/04 08:27:09;;;;;;;81.85;39.45;;;0.80;99.90;;;;;;5099397;28;20205;-83
2022/12/04 08:29:36;;;;;;;97.32;38.90;;;1.20;99.90;;;;;;5098238;28;20289;-83
2022/12/04 08:32:04;;;;;;;79.65;36.42;;;1.20;99.90;;;;;;5098810;28;20226;-83
2022/12/04 08:34:31;;;;;;;81.88;37.70;;;1.30;99.90;;;;;;5098975;28;20621;-84
2022/12/04 08:36:59;;;;;;;79.15;37.38;;;;;;;;;;5098664;28;20218;-83
2022/12/04 08:39:27;;;;;;;77.45;35.55;;;1.40;99.90;;;;;;5100254;28;20202;-83
2022/12/04 08:41:57;;;;;;;88.70;39.22;;;1.40;99.90;;;;;;5113044;28;20246;-84
2022/12/04 08:44:25;;;;;;;87.05;40.22;;;1.10;99.90;;;;;;5112369;28;20209;-82
2022/12/04 08:46:53;;;;;;;80.78;39.63;;;1.30;99.90;;;;;;5102338;28;20221;-84
2022/12/04 08:49:20;;;;;;;85.30;40.05;;;1.40;99.90;;;;;;5100560;28;20206;-83
2022/12/04 08:51:50;;;;;;;83.85;36.30;;;1.40;99.90;;;;;;5100596;28;20298;-83
2022/12/04 08:54:17;;;;;;;93.50;39.15;;;1.60;99.90;;;;;;5098739;28;20206;-82
2022/12/04 08:56:46;;;;;;;93.85;37.67;;;1.30;99.90;;;;;;5099003;28;20358;-83
2022/12/04 08:59:13;;;;;;;96.72;41.50;;;1.60;99.90;;;;;;5103957;28;20201;-83
2022/12/04 09:47:46;;;;;;;77.63;35.47;;;1.60;99.90;;;;;;5135772;22;20233;-82
2022/12/04 09:50:15;;;;;;;88.20;35.65;;;;;;;;;;5109034;28;20233;-81
2022/12/04 09:52:54;;;;;;;78.25;34.83;;;1.50;99.90;;;;;;5108577;28;20296;-82
2022/12/04 09:55:27;;;;;;;82.43;34.75;;;1.60;99.90;;;;;;5107185;28;20281;-81
2022/12/04 09:57:58;;;;;;;75.53;37.30;;;1.40;99.90;;;;;;5088308;28;20222;-82
2022/12/04 10:00:26;;;;;;;83.20;37.28;;;1.40;99.90;;;;;;5092855;28;20562;-81
2022/12/04 10:02:58;;;;;;;83.35;33.85;;;1.90;99.90;;;;;;5096200;28;20214;-81
2022/12/04 10:05:41;;;;;;;73.97;35.58;;;2.70;99.90;;;;;;5095065;28;20194;-82
2022/12/04 10:08:14;;;;;;;82.50;35.85;;;1.80;99.90;;;;;;5090880;28;20218;-82
2022/12/04 10:10:47;;;;;;;75.93;34.72;;;1.60;99.90;;;;;;5092238;28;20198;-82
2022/12/04 10:13:38;;;;;;;76.18;35.40;;;1.60;99.90;;;;;;5088823;28;20256;-83
2022/12/04 10:16:14;;;;;;;80.63;34.53;;;1.60;99.90;;;;;;5089001;28;20257;-83
2022/12/04 10:18:50;;;;;;;78.72;35.10;;;1.90;99.90;;;;;;5089391;28;20217;-84
2022/12/04 10:21:38;;;;;;;81.97;37.10;;;1.00;99.90;;;;;;5082476;28;20186;-83
2022/12/04 10:24:24;;;;;;;72.90;34.22;;;1.90;99.90;;;;;;5089282;28;20191;-83
2022/12/04 10:26:57;;;;;;;82.57;34.53;;;1.40;99.90;;;;;;5089118;28;20286;-82
2022/12/04 10:29:28;;;;;;;82.15;34.80;;;1.80;99.90;;;;;;5089141;28;20187;-83
2022/12/04 10:32:13;;;;;;;76.70;34.63;;;1.50;99.90;;;;;;5088474;28;20187;-82
2022/12/04 10:34:40;;;;;;;72.63;34.75;;;1.80;99.90;;;;;;5088444;28;20284;-83
2022/12/04 10:37:13;;;;;;;77.07;34.13;;;2.00;99.90;;;;;;5088764;28;20225;-83
2022/12/04 10:39:44;;;;;;;70.15;34.47;;;1.70;99.90;;;;;;5089087;28;20247;-83
2022/12/04 10:42:24;;;;;;;72.10;33.72;;;2.00;99.90;;;;;;5088104;28;20266;-83
2022/12/04 10:44:51;;;;;;;68.95;33.08;;;1.70;99.90;;;;;;5087655;28;20190;-82
2022/12/04 10:47:20;;;;;;;87.35;34.58;;;1.60;99.90;;;;;;5087914;28;20235;-83
2022/12/04 10:49:48;;;;;;;77.30;38.30;;;1.70;99.90;;;;;;5086612;28;20202;-83
2022/12/04 10:52:16;;;;;;;70.03;32.38;;;1.60;99.90;;;;;;5106392;28;20228;-83
2022/12/04 10:54:47;;;;;;;70.20;34.70;;;1.90;99.90;;;;;;5108219;28;20662;-83
2022/12/04 10:57:16;;;;;;;76.53;34.55;;;1.70;99.90;;;;;;5108011;28;20280;-83
2022/12/04 10:59:50;;;;;;;70.85;32.30;;;1.80;99.90;;;;;;5107544;28;20228;-83
2022/12/04 11:02:21;;;;;;;83.93;33.25;;;1.80;99.90;;;;;;5103495;28;20265;-83
2022/12/04 11:04:55;;;;;;;80.53;35.60;;;1.60;99.90;;;;;;5112852;28;20194;-84
2022/12/04 11:07:24;;;;;;;73.97;32.80;;;1.70;99.90;;;;;;5112244;28;20234;-84
2022/12/04 11:09:56;;;;;;;70.00;33.25;;;1.70;99.90;;;;;;5109639;28;20236;-84
2022/12/04 11:12:25;;;;;;;80.90;37.47;;;2.20;99.90;;;;;;5108636;28;20288;-83
2022/12/04 11:15:09;;;;;;;79.13;36.72;;;1.60;99.90;;;;;;5108692;28;20209;-84
2022/12/04 11:17:35;;;;;;;71.90;35.28;;;1.50;99.90;;;;;;5109275;28;20649;-83
2022/12/04 11:20:06;;;;;;;67.13;36.47;;;1.80;99.90;;;;;;5108752;28;20233;-84
2022/12/04 11:22:35;;;;;;;66.82;32.90;;;1.60;99.90;;;;;;5108256;28;20222;-82
2022/12/04 11:25:02;;;;;;;67.00;32.53;;;1.90;99.90;;;;;;5107186;28;20212;-83
2022/12/04 11:27:33;;;;;;;80.97;36.78;;;2.00;99.90;;;;;;5107510;28;20293;-83
2022/12/04 11:30:02;;;;;;;71.22;35.28;;;2.00;99.90;;;;;;5107887;28;20536;-82
2022/12/04 11:32:32;;;;;;;76.65;32.20;;;2.10;99.90;;;;;;5106321;28;20268;-84
2022/12/04 11:35:05;;;;;;;74.25;33.95;;;1.90;99.90;;;;;;5105407;28;20190;-82
2022/12/04 11:37:34;;;;;;;61.53;29.92;;;2.20;99.90;;;;;;5105424;28;20231;-83
2022/12/04 11:40:05;;;;;;;74.78;32.95;;;2.20;99.90;;;;;;5105785;28;20274;-83
2022/12/04 11:42:33;;;;;;;64.93;31.55;;;1.90;99.90;;;;;;5105810;28;20214;-83
2022/12/04 11:45:02;;;;;;;69.85;34.50;;;1.70;99.90;;;;;;5104127;28;20206;-83
2022/12/04 11:47:31;;;;;;;69.28;31.90;;;2.20;99.90;;;;;;5104862;28;20233;-83
2022/12/04 11:50:02;;;;;;;68.35;33.10;;;1.90;99.90;;;;;;5105779;28;20226;-82
2022/12/04 11:52:42;;;;;;;67.68;32.45;;;1.80;99.90;;;;;;5112050;28;20678;-82
2022/12/04 11:55:17;;;;;;;64.80;33.85;;;2.00;99.90;;;;;;5110625;28;20278;-83
2022/12/04 11:57:51;;;;;;;65.88;33.80;;;1.90;99.90;;;;;;5111973;28;20189;-83
2022/12/04 12:00:19;;;;;;;60.70;33.40;;;2.20;99.90;;;;;;5112552;28;20186;-81
2022/12/04 12:03:15;;;;;;;62.38;32.28;;;2.10;99.90;;;;;;5108826;28;20206;-83
2022/12/04 12:06:07;;;;;;;72.57;32.45;;;2.10;99.90;;;;;;5106397;28;20332;-83
2022/12/04 12:08:55;;;;;;;62.10;29.02;;;2.00;99.90;;;;;;5105547;28;20233;-82
2022/12/04 12:11:26;;;;;;;58.97;31.73;;;2.10;99.90;;;;;;5106523;28;20394;-83
2022/12/04 12:14:00;;;;;;;65.13;32.15;;;2.00;99.90;;;;;;5108726;28;20696;-84
2022/12/04 12:16:36;;;;;;;64.97;31.00;;;2.30;99.90;;;;;;5107560;28;20247;-83
2022/12/04 12:19:21;;;;;;;55.20;29.23;;;1.80;99.90;;;;;;5108423;28;20512;-83
2022/12/04 12:21:55;;;;;;;61.95;28.98;;;2.00;99.90;;;;;;5110750;28;20240;-83
2022/12/04 12:24:29;;;;;;;59.13;31.20;;;2.20;99.90;;;;;;5117741;28;20186;-85
2022/12/04 12:27:12;;;;;;;55.63;30.98;;;1.80;99.90;;;;;;5118096;28;20225;-83
2022/12/04 12:30:00;;;;;;;66.10;31.67;;;2.00;99.90;;;;;;5117888;28;20186;-84
2022/12/04 12:32:44;;;;;;;66.63;31.83;;;2.00;99.90;;;;;;5106659;28;20192;-82
2022/12/04 12:35:19;;;;;;;72.50;32.20;;;1.30;99.90;;;;;;5107342;28;20189;-84
2022/12/04 12:37:51;;;;;;;66.65;33.80;;;2.80;99.90;;;;;;5107677;28;20185;-83
2022/12/04 12:40:30;;;;;;;61.00;30.48;;;2.00;99.90;;;;;;5107147;28;20190;-83
2022/12/04 12:43:00;;;;;;;71.50;33.38;;;2.10;99.90;;;;;;5107633;28;20205;-84
2022/12/04 12:45:36;;;;;;;65.57;31.42;;;2.30;99.90;;;;;;5106853;28;20282;-83
2022/12/04 12:48:09;;;;;;;60.63;30.27;;;2.00;99.90;;;;;;5106118;28;20564;-83
2022/12/04 12:50:44;;;;;;;81.28;31.75;;;2.10;99.90;;;;;;5106268;28;20266;-83
2022/12/04 12:53:15;;;;;;;74.63;33.05;;;2.00;99.90;;;;;;5106268;28;20218;-83
2022/12/04 12:55:46;;;;;;;64.05;31.35;;;2.10;99.90;;;;;;5105928;28;20284;-84
2022/12/04 12:58:18;;;;;;;64.35;33.88;;;1.90;99.90;;;;;;5110395;28;20225;-83
2022/12/04 13:00:55;;;;;;;59.97;30.17;;;2.10;99.90;;;;;;5108278;28;20712;-84
2022/12/04 13:03:30;;;;;;;73.10;31.90;;;1.80;99.90;;;;;;5106747;28;20354;-83
2022/12/04 13:06:01;;;;;;;68.80;32.85;;;2.40;99.90;;;;;;5106080;28;20239;-83
2022/12/04 13:08:34;;;;;;;62.40;30.83;;;2.00;99.90;;;;;;5105927;28;20297;-83
2022/12/04 13:11:05;;;;;;;78.50;35.65;;;1.90;99.90;;;;;;5110680;28;20214;-83
2022/12/04 13:13:35;;;;;;;58.95;31.55;;;1.90;99.90;;;;;;5113509;28;20174;-82
2022/12/04 13:16:09;;;;;;;70.25;33.10;;;2.20;99.90;;;;;;5115888;28;20293;-82
2022/12/04 13:18:42;;;;;;;65.10;32.53;;;1.90;99.90;;;;;;5117287;28;20213;-84
2022/12/04 13:21:19;;;;;;;66.88;31.63;;;2.20;99.90;;;;;;5117710;28;20217;-83
2022/12/04 13:23:59;;;;;;;65.65;32.65;;;2.20;99.90;;;;;;5118335;28;20212;-83
2022/12/04 13:26:38;;;;;;;65.47;30.60;;;2.20;99.90;;;;;;5120871;28;20218;-83
2022/12/04 13:29:15;;;;;;;65.53;31.70;;;2.30;99.90;;;;;;5121275;28;20197;-82
2022/12/04 13:31:52;;;;;;;72.15;35.33;;;2.30;99.90;;;;;;5121941;28;20245;-83
2022/12/04 13:34:50;;;;;;;64.93;29.65;;;2.50;99.90;;;;;;5121597;28;20170;-82
2022/12/04 13:37:44;;;;;;;84.22;36.67;;;2.40;99.90;;;;;;5106048;28;20221;-83
2022/12/04 13:40:39;;;;;;;68.25;31.63;;;2.30;99.90;;;;;;5120932;28;20186;-83
2022/12/04 13:43:19;;;;;;;61.38;32.63;;;2.50;99.90;;;;;;5121219;28;20205;-83
2022/12/04 13:45:47;;;;;;;77.15;32.20;;;2.30;99.90;;;;;;5121252;28;20252;-83
2022/12/04 13:48:27;;;;;;;72.30;34.00;;;2.30;99.90;;;;;;5121154;28;20297;-83
2022/12/04 13:51:02;;;;;;;67.03;32.60;;;2.30;99.90;;;;;;5121451;28;20182;-81
2022/12/04 13:53:33;;;;;;;74.15;34.22;;;2.60;99.90;;;;;;5121177;28;20170;-82
2022/12/04 13:56:00;;;;;;;78.78;36.08;;;2.60;99.90;;;;;;5119897;28;20218;-82
2022/12/04 13:58:30;;;;;;;77.03;36.17;;;2.50;99.90;;;;;;5121135;28;20186;-83
2022/12/04 14:01:04;;;;;;;83.03;36.25;;;2.40;99.90;;;;;;5121142;28;20201;-83
2022/12/04 14:03:38;;;;;;;77.90;32.53;;;2.30;99.90;;;;;;5121143;28;20171;-83
2022/12/04 14:06:22;;;;;;;74.25;34.28;;;2.30;99.90;;;;;;5120074;28;20229;-83
2022/12/04 14:08:56;;;;;;;78.50;36.75;;;2.30;99.90;;;;;;5117233;28;20206;-83
2022/12/04 14:11:24;;;;;;;85.05;38.97;;;2.60;99.90;;;;;;5112139;28;20628;-83
2022/12/04 14:13:53;;;;;;;74.32;35.92;;;2.30;99.90;;;;;;5111629;28;20209;-83
2022/12/04 14:16:28;;;;;;;70.13;34.40;;;2.00;99.90;;;;;;5110026;28;20244;-83
2022/12/04 14:19:10;;;;;;;86.28;37.05;;;;;;;;;;5112084;28;20201;-83
2022/12/04 14:21:46;;;;;;;84.88;37.08;;;2.30;99.90;;;;;;5108896;28;20208;-84
2022/12/04 14:24:30;;;;;;;78.22;35.53;;;2.40;99.90;;;;;;5110448;28;20249;-82
2022/12/04 14:27:01;;;;;;;77.70;34.55;;;;;;;;;;5108305;28;20217;-83
2022/12/04 14:30:03;;;;;;;88.53;35.15;;;2.40;99.90;;;;;;5113376;28;20214;-83
2022/12/04 14:32:34;;;;;;;82.43;36.55;;;2.40;99.90;;;;;;5120398;28;20192;-81
2022/12/04 14:35:01;;;;;;;85.55;40.55;;;;;;;;;;5111058;28;20213;-83
2022/12/04 14:37:37;;;;;;;89.15;37.35;;;2.30;99.90;;;;;;5109116;28;20654;-83
2022/12/04 14:40:06;;;;;;;80.25;35.60;;;2.30;99.90;;;;;;5108977;28;20216;-83
2022/12/04 14:46:14;;;;;;;102.72;37.88;;;2.30;99.90;;;;;;5080692;28;20241;-85
2022/12/04 14:48:50;;;;;;;83.57;37.05;;;2.30;99.90;;;;;;5103397;28;20247;-83